Portada
METAR-TAF:

METAR-TAF

Aeropuertos :

Córdoba, España

Aeropuerto de Córdoba

latitud: 37-51N, longitud: 004-51W, altitud: 90 m

Observación

El informe se hizo hace 17 minutos, a las 09:00 UTC
Viento calma
Temperatura 19°C
Humedad 60%
Presión 1016 hPa
Visibilidad 10 km o más
sin nubes por debajo de 1500 m y sin presencia de cumulonimbus.

METAR: LEBA 240900Z 00000KT CAVOK 19/11 Q1016

Hora: 11:17 (09:17 UTC)

Pronóstico

El informe se hizo hace 1 hora y 17 minutos, a las 08:00 UTC
Pronóstico válido del 24 a las 09 UTC al 24 a las 18 UTC
Viento 5 kt del oeste-suroeste
Visibilidad 10 km o más
sin nubes por debajo de 1500 m y sin presencia de cumulonimbus.
Probabilidad 40% :
Temporalmente
del 24 a las 13 UTC al 24 a las 18 UTC
Escasas nubes a una altura de 3500 ft, Cumulonimbus.

TAF: LEBA 240800Z 2409/2418 24005KT CAVOK PROB40 TEMPO 2413/2418 FEW035CB

Observaciones y pronósticos meteorológicos de más de 4000 aeropuertos (mensajes METAR y TAF).

Los puntos amarillos y rojos representan las estaciones disponibles.

Ponga el ratón en el punto deseado para ver el nombre de la estación.

Haga clic para ver las observaciones y los pronósticos meteorológicos.

Para cambiar el mapa : haga clic en los botones verdes con una cruz de color negro para hacer un zoom, en el botón verde con un guión para alejar o en las flechas verdes para mapas adyacentes.


METAR-TAF: